Latest Coastal Weather Observations for Yeppoon

IDQ60701

Issued at 8:55 pm EST Tuesday 30 September 2014 (issued every 10 minutes, with the page automatically refreshed every 10 minutes)

About coastal observations | Map of coastal stations | Coastal observations for QLD | Marine services | Other Formats
Station Details ID: 033294 Name: YEPPOON THE ESPLANADE Lat: -23.14 Lon: 150.75 Height: 5.5 m
Data from the previous 72 hours. | See also: Recent months at Yeppoon
Date/Time
EST
Temp

°C
Wind Pressure Rain
since 9am
mm
Weather Cloud Vis
km
Sea
Height
m
Swell
Dir
 
Speed
knots
Gust
knots
hPa Trend Height
m
Period
s
Dir
30/08:30pm 21.3 NE 7 11 1020.0 - 0.0 - - - - - - -
30/08:00pm 21.4 NE 7 10 1019.8 - 0.0 - - - - - - -
30/07:30pm 21.5 NE 8 12 1019.5 - 0.0 - - - - - - -
30/07:00pm 21.6 ENE 6 9 1019.1 - 0.0 - - - - - - -
30/06:30pm 21.6 ENE 6 9 1018.7 - 0.0 - - - - - - -
30/06:00pm 21.8 ENE 6 9 1018.3 - 0.0 - - - - - - -
30/05:30pm 22.2 NE 6 8 1018.2 - 0.0 - - - - - - -
30/05:00pm 22.5 NE 6 8 1018.0 - 0.0 - - - - - - -
30/04:30pm 22.8 NE 6 8 1017.8 - 0.0 - - - - - - -
30/04:00pm 23.3 NE 5 8 1017.8 - 0.0 - - - - - - -
30/03:30pm 23.6 NE 6 8 1017.8 - 0.0 - - - - - - -
30/03:00pm 23.8 NE 5 8 1018.0 - 0.0 - - - - - - -
30/02:30pm 23.8 NE 5 7 1018.3 - 0.0 - - - - - - -
30/02:00pm 24.2 NE 6 8 1018.5 - 0.0 - - - - - - -
30/01:30pm 24.2 NE 7 9 1019.0 - 0.0 - - - - - - -
30/01:00pm 24.3 NNE 7 9 1019.3 - 0.0 - - - - - - -
30/12:30pm 25.2 NNE 6 8 1019.7 - 0.0 - - - - - - -
30/12:00pm 25.1 NE 6 7 1020.1 - 0.0 - - - - - - -
30/11:30am 25.0 NNE 6 7 1020.6 - 0.0 - - - - - - -
30/11:00am 24.8 NNE 6 8 1021.2 - 0.0 - - - - - - -
30/10:30am 24.5 N 6 8 1021.5 - 0.0 - - - - - - -
30/10:00am 24.6 NNE 5 7 1021.8 - 0.0 - - - - - - -
30/09:30am 24.1 NNE 4 6 1021.9 - 0.0 - - - - - - -
30/09:00am 23.7 NE 3 4 1021.8 - 0.0 - - - - - - -
30/08:30am 22.6 ENE 3 4 1021.6 - 0.0 - - - - - - -
30/08:00am 21.2 N 1 4 1021.2 - 0.0 - - - - - - -
30/07:30am 19.1 W 4 6 1021.1 - 0.0 - - - - - - -
30/07:00am 16.8 W 5 6 1020.8 - 0.0 - - - - - - -
30/06:30am 14.7 W 6 7 1020.5 - 0.0 - - - - - - -
30/06:00am 14.4 W 5 7 1020.3 - 0.0 - - - - - - -
30/05:30am 14.6 WSW 5 6 1020.1 - 0.0 - - - - - - -
30/05:00am 14.4 W 5 7 1019.7 - 0.0 - - - - - - -
30/04:30am 14.6 W 5 7 1019.5 - 0.0 - - - - - - -
30/04:00am 14.9 W 6 8 1019.3 - 0.0 - - - - - - -
30/03:30am 15.2 W 5 7 1019.2 - 0.0 - - - - - - -
30/03:00am 15.6 W 5 7 1019.1 - 0.0 - - - - - - -
30/02:30am 16.8 W 5 6 1019.1 - 0.0 - - - - - - -
30/02:00am 19.7 N 4 5 1019.2 - 0.0 - - - - - - -
30/01:30am 21.1 NNE 9 12 1019.3 - 0.0 - - - - - - -
30/01:00am 21.1 NE 9 11 1019.5 - 0.0 - - - - - - -
30/12:30am 21.2 NE 9 11 1019.7 - 0.0 - - - - - - -
30/12:00am 21.2 NE 9 12 1019.9 - 0.0 - - - - - - -
 
Date/Time
EST
Temp

°C
Wind Pressure Rain
since 9am
mm
Weather Cloud Vis
km
Sea
Height
m
Swell
Dir
 
Speed
knots
Gust
knots
hPa Trend Height
m
Period
s
Dir
29/11:30pm 21.3 NE 9 11 1020.2 - 0.0 - - - - - - -
29/11:00pm 21.3 NE 9 12 1020.3 - 0.0 - - - - - - -
29/10:30pm 21.2 NE 9 12 1020.2 - 0.0 - - - - - - -
29/10:00pm 21.3 NE 10 13 1020.3 - 0.0 - - - - - - -
29/09:30pm 21.3 ENE 9 12 1020.4 - 0.0 - - - - - - -
29/09:00pm 21.3 ENE 9 12 1020.3 - 0.0 - - - - - - -
29/08:30pm 21.4 ENE 8 12 1020.1 - 0.0 - - - - - - -
29/08:00pm 21.4 ENE 9 13 1019.9 - 0.0 - - - - - - -
29/07:30pm 21.4 NE 10 13 1019.4 - 0.0 - - - - - - -
29/07:00pm 21.4 ENE 9 12 1019.2 - 0.0 - - - - - - -
29/06:30pm 21.4 NE 9 12 1018.9 - 0.0 - - - - - - -
29/06:00pm 21.5 ENE 9 12 1018.6 - 0.0 - - - - - - -
29/05:30pm 21.9 NE 9 11 1018.4 - 0.0 - - - - - - -
29/05:00pm 22.2 ENE 9 11 1018.0 - 0.0 - - - - - - -
29/04:30pm 22.6 NE 10 13 1017.8 - 0.0 - - - - - - -
29/04:00pm 23.0 NE 9 11 1017.9 - 0.0 - - - - - - -
29/03:30pm 23.1 ENE 8 11 1017.9 - 0.0 - - - - - - -
29/03:00pm 23.5 ENE 8 10 1018.0 - 0.0 - - - - - - -
29/02:30pm 23.6 ENE 8 11 1018.2 - 0.0 - - - - - - -
29/02:00pm 23.8 ENE 9 12 1018.5 - 0.0 - - - - - - -
29/01:30pm 24.0 ENE 9 13 1018.7 - 0.0 - - - - - - -
29/01:00pm 24.2 ENE 8 11 1019.2 - 0.0 - - - - - - -
29/12:30pm 24.5 ENE 8 11 1019.5 - 0.0 - - - - - - -
29/12:00pm 24.2 ENE 9 12 1019.9 - 0.0 - - - - - - -
29/11:30am 24.2 ENE 9 13 1020.2 - 0.0 - - - - - - -
29/11:00am 24.2 ENE 8 11 1020.5 - 0.0 - - - - - - -
29/10:30am 24.1 ENE 8 11 1020.7 - 0.0 - - - - - - -
29/10:00am 23.9 ENE 8 11 1021.0 - 0.0 - - - - - - -
29/09:30am 23.7 E 7 10 1021.0 - 0.0 - - - - - - -
29/09:00am 23.5 E 8 10 1021.0 - 0.0 - - - - - - -
29/08:30am 23.2 ENE 7 11 1020.9 - 0.0 - - - - - - -
29/08:00am 22.3 E 8 11 1020.6 - 0.0 - - - - - - -
29/07:30am 22.4 E 9 11 1020.4 - 0.0 - - - - - - -
29/07:00am 20.1 SSE 2 4 1020.2 - 0.0 - - - - - - -
29/06:30am 18.8 SSW 2 4 1019.8 - 0.0 - - - - - - -
29/06:00am 18.7 CALM 0 0 1019.5 - 0.0 - - - - - - -
29/05:30am 19.5 NNE 4 6 1019.4 - 0.0 - - - - - - -
29/05:00am 19.6 NNE 8 9 1019.0 - 0.0 - - - - - - -
29/04:30am 19.3 ENE 12 15 1018.7 - 0.0 - - - - - - -
29/04:00am 20.7 E 6 8 1018.3 - 0.0 - - - - - - -
29/03:30am 20.7 ENE 7 9 1018.3 - 0.0 - - - - - - -
29/03:00am 20.8 E 6 8 1018.6 - 0.0 - - - - - - -
29/02:30am 20.9 E 7 10 1018.7 - 0.0 - - - - - - -
29/02:00am 20.9 E 8 11 1019.0 - 0.0 - - - - - - -
29/01:30am 21.0 ENE 10 13 1019.3 - 0.0 - - - - - - -
29/01:00am 21.1 ENE 9 12 1019.5 - 0.0 - - - - - - -
29/12:30am 21.1 ENE 9 13 1019.7 - 0.0 - - - - - - -
29/12:00am 21.3 E 9 13 1020.1 - 0.0 - - - - - - -
 
Date/Time
EST
Temp

°C
Wind Pressure Rain
since 9am
mm
Weather Cloud Vis
km
Sea
Height
m
Swell
Dir
 
Speed
knots
Gust
knots
hPa Trend Height
m
Period
s
Dir
28/11:30pm 21.3 ENE 9 13 1020.2 - 0.0 - - - - - - -
28/11:00pm 21.4 ENE 9 11 1020.4 - 0.0 - - - - - - -
28/10:30pm 21.4 ENE 8 11 1020.5 - 0.0 - - - - - - -
28/10:00pm 21.3 ENE 8 11 1020.4 - 0.0 - - - - - - -
28/09:30pm 21.3 ENE 9 12 1020.3 - 0.0 - - - - - - -
28/09:00pm 21.3 ENE 9 13 1020.2 - 0.0 - - - - - - -
28/08:30pm 21.5 ENE 9 13 1019.9 - 0.0 - - - - - - -
28/08:00pm 21.5 E 11 13 1019.5 - 0.0 - - - - - - -
28/07:30pm 21.5 E 12 15 1019.2 - 0.0 - - - - - - -
28/07:00pm 21.6 E 12 15 1018.9 - 0.0 - - - - - - -
28/06:30pm 21.7 E 11 15 1018.6 - 0.0 - - - - - - -
28/06:00pm 21.7 E 12 15 1018.3 - 0.0 - - - - - - -
28/05:30pm 22.0 ENE 11 15 1018.1 - 0.0 - - - - - - -
28/05:00pm 22.1 ENE 10 14 1018.0 - 0.0 - - - - - - -
28/04:30pm 22.6 ENE 11 15 1018.1 - 0.0 - - - - - - -
28/04:00pm 23.1 ENE 9 13 1017.9 - 0.0 - - - - - - -
28/03:30pm 23.2 E 10 13 1017.9 - 0.0 - - - - - - -
28/03:00pm 23.5 ENE 8 11 1018.0 - 0.0 - - - - - - -
28/02:30pm 24.1 ENE 8 11 1018.2 - 0.0 - - - - - - -
28/02:00pm 24.1 E 8 11 1018.3 - 0.0 - - - - - - -
28/01:30pm 24.2 ENE 8 10 1018.5 - 0.0 - - - - - - -
28/01:00pm 24.5 ENE 7 11 1018.8 - 0.0 - - - - - - -
28/12:30pm 24.1 E 9 11 1019.2 - 0.0 - - - - - - -
28/12:00pm 24.2 E 8 11 1019.5 - 0.0 - - - - - - -
28/11:30am 24.1 E 8 11 1019.8 - 0.0 - - - - - - -
28/11:00am 24.1 E 8 10 1020.0 - 0.0 - - - - - - -
28/10:30am 23.8 E 8 11 1020.4 - 0.0 - - - - - - -
28/10:00am 23.4 E 9 13 1020.6 - 0.0 - - - - - - -
28/09:30am 22.6 E 8 10 1020.5 - 0.0 - - - - - - -
28/09:00am 23.4 ENE 4 6 1020.4 - 0.0 - - - - - - -
28/08:30am 22.7 ESE 6 8 1020.3 - 0.0 - - - - - - -
28/08:00am 21.1 SSE 5 8 1020.1 - 0.0 - - - - - - -
28/07:30am 20.2 S 3 6 1020.1 - 0.0 - - - - - - -
28/07:00am 18.4 WSW 4 5 1019.6 - 0.0 - - - - - - -
28/06:30am 16.8 W 6 7 1019.4 - 0.0 - - - - - - -
28/06:00am 16.1 W 6 7 1018.9 - 0.0 - - - - - - -
28/05:30am 16.1 W 6 7 1018.6 - 0.0 - - - - - - -
28/05:00am 16.2 W 5 6 1018.2 - 0.0 - - - - - - -
28/04:30am 16.3 W 5 6 1017.8 - 0.0 - - - - - - -
28/04:00am 16.4 W 5 6 1017.6 - 0.0 - - - - - - -
28/03:30am 16.2 W 4 5 1017.8 - 0.0 - - - - - - -
28/03:00am 15.5 W 5 7 1017.5 - 0.0 - - - - - - -
28/02:30am 16.5 W 5 7 1017.5 - 0.0 - - - - - - -
28/02:00am 15.5 W 6 7 1017.6 - 0.0 - - - - - - -
28/01:30am 16.1 W 5 6 1017.7 - 0.0 - - - - - - -
28/01:00am 15.9 W 4 6 1017.7 - 0.0 - - - - - - -
28/12:30am 16.3 W 3 5 1018.0 - 0.0 - - - - - - -
28/12:00am 16.5 W 4 5 1018.4 - 0.0 - - - - - - -
 
Date/Time
EST
Temp

°C
Wind Pressure Rain
since 9am
mm
Weather Cloud Vis
km
Sea
Height
m
Swell
Dir
 
Speed
knots
Gust
knots
hPa Trend Height
m
Period
s
Dir
27/11:30pm 16.9 W 3 4 1018.6 - 0.0 - - - - - - -
27/11:00pm 17.3 W 4 5 1018.7 - 0.0 - - - - - - -
27/10:30pm 17.6 CALM 0 0 1018.7 - 0.0 - - - - - - -
27/10:00pm 17.8 CALM 0 0 1018.6 - 0.0 - - - - - - -
27/09:30pm 18.2 SSW 3 4 1018.6 - 0.0 - - - - - - -
27/09:00pm 18.8 NW 1 4 1018.5 - 0.0 - - - - - - -

Other Formats:

Comma delimited format used in spreadsheet applications
http://www.bom.gov.au/fwo/IDQ60701/IDQ60701.94373.axf

JavaScript Object Notation format (JSON) in row-major order
http://www.bom.gov.au/fwo/IDQ60701/IDQ60701.94373.json